sensor_id;sensor_type;location;lat;lon;timestamp;temperature;humidity
4376;DHT22;2202;50.866;12.750;2024-02-21T00:01:33;6.50;89.00
4376;DHT22;2202;50.866;12.750;2024-02-21T00:04:00;6.50;89.00
4376;DHT22;2202;50.866;12.750;2024-02-21T00:06:26;6.50;88.80
4376;DHT22;2202;50.866;12.750;2024-02-21T00:08:53;6.50;88.60
4376;DHT22;2202;50.866;12.750;2024-02-21T00:11:21;6.50;88.60
4376;DHT22;2202;50.866;12.750;2024-02-21T00:13:48;6.50;88.60
4376;DHT22;2202;50.866;12.750;2024-02-21T00:16:16;6.50;88.80
4376;DHT22;2202;50.866;12.750;2024-02-21T00:18:43;6.50;88.80
4376;DHT22;2202;50.866;12.750;2024-02-21T00:21:10;6.50;88.80
4376;DHT22;2202;50.866;12.750;2024-02-21T00:23:40;6.50;88.80
4376;DHT22;2202;50.866;12.750;2024-02-21T00:26:07;6.50;88.80
4376;DHT22;2202;50.866;12.750;2024-02-21T00:28:35;6.50;88.80
4376;DHT22;2202;50.866;12.750;2024-02-21T00:31:02;6.50;89.00
4376;DHT22;2202;50.866;12.750;2024-02-21T00:33:29;6.50;88.80
4376;DHT22;2202;50.866;12.750;2024-02-21T00:35:56;6.50;89.00
4376;DHT22;2202;50.866;12.750;2024-02-21T00:38:23;6.50;88.60
4376;DHT22;2202;50.866;12.750;2024-02-21T00:40:50;6.50;88.60
4376;DHT22;2202;50.866;12.750;2024-02-21T00:43:16;6.50;88.80
4376;DHT22;2202;50.866;12.750;2024-02-21T00:45:45;6.50;88.80
4376;DHT22;2202;50.866;12.750;2024-02-21T00:48:11;6.50;89.00
4376;DHT22;2202;50.866;12.750;2024-02-21T00:50:38;6.50;89.00
4376;DHT22;2202;50.866;12.750;2024-02-21T00:53:05;6.50;89.20
4376;DHT22;2202;50.866;12.750;2024-02-21T00:55:32;6.40;89.20
4376;DHT22;2202;50.866;12.750;2024-02-21T00:57:59;6.40;89.20
4376;DHT22;2202;50.866;12.750;2024-02-21T01:00:25;6.40;89.40
4376;DHT22;2202;50.866;12.750;2024-02-21T01:02:54;6.40;89.60
4376;DHT22;2202;50.866;12.750;2024-02-21T01:05:20;6.40;89.80
4376;DHT22;2202;50.866;12.750;2024-02-21T01:07:48;6.40;89.80
4376;DHT22;2202;50.866;12.750;2024-02-21T01:10:15;6.40;89.80
4376;DHT22;2202;50.866;12.750;2024-02-21T01:12:42;6.50;89.80
4376;DHT22;2202;50.866;12.750;2024-02-21T01:15:09;6.50;89.80
4376;DHT22;2202;50.866;12.750;2024-02-21T01:17:37;6.50;89.80
4376;DHT22;2202;50.866;12.750;2024-02-21T01:20:08;6.50;89.80
4376;DHT22;2202;50.866;12.750;2024-02-21T01:22:35;6.50;89.40
4376;DHT22;2202;50.866;12.750;2024-02-21T01:25:02;6.50;89.40
4376;DHT22;2202;50.866;12.750;2024-02-21T01:27:28;6.50;89.80
4376;DHT22;2202;50.866;12.750;2024-02-21T01:29:55;6.40;90.00
4376;DHT22;2202;50.866;12.750;2024-02-21T01:32:22;6.40;89.80
4376;DHT22;2202;50.866;12.750;2024-02-21T01:34:49;6.40;90.00
4376;DHT22;2202;50.866;12.750;2024-02-21T01:37:18;6.30;90.30
4376;DHT22;2202;50.866;12.750;2024-02-21T01:39:44;6.30;90.40
4376;DHT22;2202;50.866;12.750;2024-02-21T01:42:11;6.30;90.50
4376;DHT22;2202;50.866;12.750;2024-02-21T01:44:38;6.30;90.50
4376;DHT22;2202;50.866;12.750;2024-02-21T01:47:05;6.30;90.50
4376;DHT22;2202;50.866;12.750;2024-02-21T01:49:32;6.30;90.70
4376;DHT22;2202;50.866;12.750;2024-02-21T01:51:59;6.30;90.60
4376;DHT22;2202;50.866;12.750;2024-02-21T01:54:28;6.30;90.70
4376;DHT22;2202;50.866;12.750;2024-02-21T01:56:55;6.30;90.60
4376;DHT22;2202;50.866;12.750;2024-02-21T01:59:23;6.30;90.60
4376;DHT22;2202;50.866;12.750;2024-02-21T02:01:51;6.20;90.80
4376;DHT22;2202;50.866;12.750;2024-02-21T02:04:18;6.20;90.80
4376;DHT22;2202;50.866;12.750;2024-02-21T02:06:45;6.30;90.70
4376;DHT22;2202;50.866;12.750;2024-02-21T02:09:12;6.30;90.50
4376;DHT22;2202;50.866;12.750;2024-02-21T02:11:41;6.30;90.60
4376;DHT22;2202;50.866;12.750;2024-02-21T02:14:08;6.30;90.60
4376;DHT22;2202;50.866;12.750;2024-02-21T02:16:35;6.20;90.60
4376;DHT22;2202;50.866;12.750;2024-02-21T02:19:02;6.30;90.80
4376;DHT22;2202;50.866;12.750;2024-02-21T02:21:32;6.30;90.70
4376;DHT22;2202;50.866;12.750;2024-02-21T02:24:02;6.30;90.60
4376;DHT22;2202;50.866;12.750;2024-02-21T02:26:30;6.30;90.60
4376;DHT22;2202;50.866;12.750;2024-02-21T02:28:57;6.20;90.70
4376;DHT22;2202;50.866;12.750;2024-02-21T02:31:23;6.20;90.90
4376;DHT22;2202;50.866;12.750;2024-02-21T02:33:50;6.10;91.00
4376;DHT22;2202;50.866;12.750;2024-02-21T02:36:17;6.20;91.10
4376;DHT22;2202;50.866;12.750;2024-02-21T02:38:44;6.20;90.90
4376;DHT22;2202;50.866;12.750;2024-02-21T02:41:12;6.10;91.10
4376;DHT22;2202;50.866;12.750;2024-02-21T02:43:39;6.10;91.10
4376;DHT22;2202;50.866;12.750;2024-02-21T02:46:06;6.10;91.20
4376;DHT22;2202;50.866;12.750;2024-02-21T02:48:32;6.10;91.20
4376;DHT22;2202;50.866;12.750;2024-02-21T02:50:59;6.10;91.30
4376;DHT22;2202;50.866;12.750;2024-02-21T02:53:26;6.10;91.10
4376;DHT22;2202;50.866;12.750;2024-02-21T02:55:53;6.10;91.00
4376;DHT22;2202;50.866;12.750;2024-02-21T02:58:21;6.20;90.90
4376;DHT22;2202;50.866;12.750;2024-02-21T03:00:48;6.20;90.90
4376;DHT22;2202;50.866;12.750;2024-02-21T03:03:15;6.30;90.80
4376;DHT22;2202;50.866;12.750;2024-02-21T03:05:42;6.30;90.70
4376;DHT22;2202;50.866;12.750;2024-02-21T03:08:09;6.30;90.60
4376;DHT22;2202;50.866;12.750;2024-02-21T03:10:35;6.30;90.60
4376;DHT22;2202;50.866;12.750;2024-02-21T03:13:02;6.30;90.70
4376;DHT22;2202;50.866;12.750;2024-02-21T03:15:31;6.30;90.60
4376;DHT22;2202;50.866;12.750;2024-02-21T03:17:58;6.30;90.80
4376;DHT22;2202;50.866;12.750;2024-02-21T03:20:25;6.20;90.80
4376;DHT22;2202;50.866;12.750;2024-02-21T03:22:52;6.30;90.70
4376;DHT22;2202;50.866;12.750;2024-02-21T03:25:19;6.30;90.50
4376;DHT22;2202;50.866;12.750;2024-02-21T03:27:46;6.30;90.50
4376;DHT22;2202;50.866;12.750;2024-02-21T03:30:13;6.40;90.30
4376;DHT22;2202;50.866;12.750;2024-02-21T03:32:41;6.40;90.20
4376;DHT22;2202;50.866;12.750;2024-02-21T03:35:08;6.40;90.20
4376;DHT22;2202;50.866;12.750;2024-02-21T03:37:35;6.40;90.40
4376;DHT22;2202;50.866;12.750;2024-02-21T03:40:02;6.30;90.30
4376;DHT22;2202;50.866;12.750;2024-02-21T03:42:29;6.30;90.40
4376;DHT22;2202;50.866;12.750;2024-02-21T03:44:57;6.30;90.30
4376;DHT22;2202;50.866;12.750;2024-02-21T03:47:23;6.40;90.00
4376;DHT22;2202;50.866;12.750;2024-02-21T03:49:52;6.40;89.80
4376;DHT22;2202;50.866;12.750;2024-02-21T03:52:18;6.40;89.80
4376;DHT22;2202;50.866;12.750;2024-02-21T03:54:45;6.40;90.10
4376;DHT22;2202;50.866;12.750;2024-02-21T03:57:12;6.40;90.40
4376;DHT22;2202;50.866;12.750;2024-02-21T03:59:39;6.40;90.60
4376;DHT22;2202;50.866;12.750;2024-02-21T04:02:06;6.40;91.00
4376;DHT22;2202;50.866;12.750;2024-02-21T04:04:34;6.40;91.10
4376;DHT22;2202;50.866;12.750;2024-02-21T04:07:04;6.40;91.20
4376;DHT22;2202;50.866;12.750;2024-02-21T04:09:32;6.40;91.30
4376;DHT22;2202;50.866;12.750;2024-02-21T04:11:59;6.40;91.60
4376;DHT22;2202;50.866;12.750;2024-02-21T04:14:26;6.30;91.80
4376;DHT22;2202;50.866;12.750;2024-02-21T04:16:53;6.30;92.20
4376;DHT22;2202;50.866;12.750;2024-02-21T04:19:20;6.30;92.50
4376;DHT22;2202;50.866;12.750;2024-02-21T04:21:46;6.30;92.80
4376;DHT22;2202;50.866;12.750;2024-02-21T04:24:15;6.20;93.20
4376;DHT22;2202;50.866;12.750;2024-02-21T04:26:42;6.20;93.50
4376;DHT22;2202;50.866;12.750;2024-02-21T04:29:09;6.10;93.90
4376;DHT22;2202;50.866;12.750;2024-02-21T04:31:36;6.10;93.90
4376;DHT22;2202;50.866;12.750;2024-02-21T04:34:02;6.10;94.00
4376;DHT22;2202;50.866;12.750;2024-02-21T04:36:29;6.10;94.20
4376;DHT22;2202;50.866;12.750;2024-02-21T04:38:56;6.00;94.60
4376;DHT22;2202;50.866;12.750;2024-02-21T04:41:25;6.00;94.80
4376;DHT22;2202;50.866;12.750;2024-02-21T04:43:53;6.00;94.90
4376;DHT22;2202;50.866;12.750;2024-02-21T04:46:20;6.00;94.90
4376;DHT22;2202;50.866;12.750;2024-02-21T04:48:47;6.00;94.90
4376;DHT22;2202;50.866;12.750;2024-02-21T04:51:14;5.90;95.60
4376;DHT22;2202;50.866;12.750;2024-02-21T04:53:41;5.80;95.90
4376;DHT22;2202;50.866;12.750;2024-02-21T04:56:07;5.80;96.10
4376;DHT22;2202;50.866;12.750;2024-02-21T04:58:39;5.80;96.30
4376;DHT22;2202;50.866;12.750;2024-02-21T05:01:06;5.80;96.30
4376;DHT22;2202;50.866;12.750;2024-02-21T05:03:33;5.80;96.60
4376;DHT22;2202;50.866;12.750;2024-02-21T05:06:00;5.70;96.70
4376;DHT22;2202;50.866;12.750;2024-02-21T05:08:27;5.70;96.70
4376;DHT22;2202;50.866;12.750;2024-02-21T05:10:54;5.80;96.70
4376;DHT22;2202;50.866;12.750;2024-02-21T05:13:20;5.80;96.60
4376;DHT22;2202;50.866;12.750;2024-02-21T05:15:57;5.80;96.60
4376;DHT22;2202;50.866;12.750;2024-02-21T05:18:53;5.80;96.60
4376;DHT22;2202;50.866;12.750;2024-02-21T05:21:22;5.80;96.70
4376;DHT22;2202;50.866;12.750;2024-02-21T05:23:49;5.70;97.00
4376;DHT22;2202;50.866;12.750;2024-02-21T05:26:20;5.70;97.00
4376;DHT22;2202;50.866;12.750;2024-02-21T05:28:48;5.70;97.10
4376;DHT22;2202;50.866;12.750;2024-02-21T05:31:17;5.60;97.10
4376;DHT22;2202;50.866;12.750;2024-02-21T05:33:44;5.60;97.40
4376;DHT22;2202;50.866;12.750;2024-02-21T05:36:10;5.70;97.40
4376;DHT22;2202;50.866;12.750;2024-02-21T05:38:37;5.70;97.10
4376;DHT22;2202;50.866;12.750;2024-02-21T05:41:04;5.70;96.70
4376;DHT22;2202;50.866;12.750;2024-02-21T05:43:32;5.60;97.00
4376;DHT22;2202;50.866;12.750;2024-02-21T05:45:58;5.60;97.20
4376;DHT22;2202;50.866;12.750;2024-02-21T05:48:27;5.60;97.40
4376;DHT22;2202;50.866;12.750;2024-02-21T05:50:53;5.50;97.40
4376;DHT22;2202;50.866;12.750;2024-02-21T05:53:20;5.50;97.50
4376;DHT22;2202;50.866;12.750;2024-02-21T05:55:47;5.60;97.40
4376;DHT22;2202;50.866;12.750;2024-02-21T05:58:14;5.60;97.40
4376;DHT22;2202;50.866;12.750;2024-02-21T06:00:41;5.50;97.30
4376;DHT22;2202;50.866;12.750;2024-02-21T06:03:07;5.50;97.40
4376;DHT22;2202;50.866;12.750;2024-02-21T06:05:38;5.60;97.30
4376;DHT22;2202;50.866;12.750;2024-02-21T06:08:05;5.50;96.90
4376;DHT22;2202;50.866;12.750;2024-02-21T06:10:33;5.50;96.90
4376;DHT22;2202;50.866;12.750;2024-02-21T06:13:00;5.50;97.10
4376;DHT22;2202;50.866;12.750;2024-02-21T06:15:27;5.40;97.20
4376;DHT22;2202;50.866;12.750;2024-02-21T06:17:54;5.30;97.30
4376;DHT22;2202;50.866;12.750;2024-02-21T06:20:20;5.30;97.30
4376;DHT22;2202;50.866;12.750;2024-02-21T06:22:49;5.30;97.10
4376;DHT22;2202;50.866;12.750;2024-02-21T06:25:16;5.30;97.10
4376;DHT22;2202;50.866;12.750;2024-02-21T06:27:43;5.30;97.10
4376;DHT22;2202;50.866;12.750;2024-02-21T06:30:11;5.30;97.10
4376;DHT22;2202;50.866;12.750;2024-02-21T06:32:38;5.30;97.00
4376;DHT22;2202;50.866;12.750;2024-02-21T06:35:05;5.30;97.00
4376;DHT22;2202;50.866;12.750;2024-02-21T06:37:32;5.30;96.90
4376;DHT22;2202;50.866;12.750;2024-02-21T06:40:00;5.30;96.60
4376;DHT22;2202;50.866;12.750;2024-02-21T06:42:29;5.30;96.60
4376;DHT22;2202;50.866;12.750;2024-02-21T06:44:56;5.40;96.40
4376;DHT22;2202;50.866;12.750;2024-02-21T06:47:23;5.50;96.10
4376;DHT22;2202;50.866;12.750;2024-02-21T06:49:50;5.50;95.80
4376;DHT22;2202;50.866;12.750;2024-02-21T06:52:17;5.60;95.60
4376;DHT22;2202;50.866;12.750;2024-02-21T06:54:45;5.60;95.50
4376;DHT22;2202;50.866;12.750;2024-02-21T06:57:14;5.60;95.40
4376;DHT22;2202;50.866;12.750;2024-02-21T06:59:41;5.60;95.40
4376;DHT22;2202;50.866;12.750;2024-02-21T07:02:08;5.60;95.30
4376;DHT22;2202;50.866;12.750;2024-02-21T07:04:35;5.60;95.20
4376;DHT22;2202;50.866;12.750;2024-02-21T07:07:02;5.60;95.30
4376;DHT22;2202;50.866;12.750;2024-02-21T07:09:29;5.60;95.30
4376;DHT22;2202;50.866;12.750;2024-02-21T07:11:57;5.70;95.30
4376;DHT22;2202;50.866;12.750;2024-02-21T07:14:25;5.70;95.20
4376;DHT22;2202;50.866;12.750;2024-02-21T07:16:52;5.60;95.70
4376;DHT22;2202;50.866;12.750;2024-02-21T07:19:19;5.60;95.60
4376;DHT22;2202;50.866;12.750;2024-02-21T07:21:46;5.70;95.40
4376;DHT22;2202;50.866;12.750;2024-02-21T07:24:13;5.70;95.30
4376;DHT22;2202;50.866;12.750;2024-02-21T07:26:42;5.70;95.40
4376;DHT22;2202;50.866;12.750;2024-02-21T07:29:09;5.80;95.40
4376;DHT22;2202;50.866;12.750;2024-02-21T07:31:42;5.90;95.40
4376;DHT22;2202;50.866;12.750;2024-02-21T07:34:09;6.00;95.20
4376;DHT22;2202;50.866;12.750;2024-02-21T07:36:35;6.30;95.10
4376;DHT22;2202;50.866;12.750;2024-02-21T07:39:03;6.60;93.90
4376;DHT22;2202;50.866;12.750;2024-02-21T07:41:30;6.90;93.20
4376;DHT22;2202;50.866;12.750;2024-02-21T07:43:57;6.80;92.60
4376;DHT22;2202;50.866;12.750;2024-02-21T07:46:23;6.70;92.80
4376;DHT22;2202;50.866;12.750;2024-02-21T07:48:52;6.60;92.90
4376;DHT22;2202;50.866;12.750;2024-02-21T07:51:18;6.60;92.90
4376;DHT22;2202;50.866;12.750;2024-02-21T07:53:45;6.60;93.20
4376;DHT22;2202;50.866;12.750;2024-02-21T07:56:13;6.70;93.50
4376;DHT22;2202;50.866;12.750;2024-02-21T07:58:40;6.60;93.10
4376;DHT22;2202;50.866;12.750;2024-02-21T08:01:07;6.50;93.10
4376;DHT22;2202;50.866;12.750;2024-02-21T08:03:34;6.60;93.30
4376;DHT22;2202;50.866;12.750;2024-02-21T08:06:03;6.50;93.10
4376;DHT22;2202;50.866;12.750;2024-02-21T08:08:30;6.50;93.30
4376;DHT22;2202;50.866;12.750;2024-02-21T08:10:57;6.60;93.50
4376;DHT22;2202;50.866;12.750;2024-02-21T08:13:24;6.60;93.20
4376;DHT22;2202;50.866;12.750;2024-02-21T08:15:51;6.60;92.90
4376;DHT22;2202;50.866;12.750;2024-02-21T08:18:17;6.70;92.50
4376;DHT22;2202;50.866;12.750;2024-02-21T08:20:44;6.70;92.30
4376;DHT22;2202;50.866;12.750;2024-02-21T08:23:15;6.80;92.10
4376;DHT22;2202;50.866;12.750;2024-02-21T08:25:42;7.10;92.30
4376;DHT22;2202;50.866;12.750;2024-02-21T08:28:09;7.50;91.00
4376;DHT22;2202;50.866;12.750;2024-02-21T08:30:35;7.70;90.30
4376;DHT22;2202;50.866;12.750;2024-02-21T08:33:03;7.80;88.40
4376;DHT22;2202;50.866;12.750;2024-02-21T08:35:30;7.90;89.20
4376;DHT22;2202;50.866;12.750;2024-02-21T08:37:57;8.00;87.00
4376;DHT22;2202;50.866;12.750;2024-02-21T08:40:25;8.20;86.60
4376;DHT22;2202;50.866;12.750;2024-02-21T08:42:51;8.20;86.20
4376;DHT22;2202;50.866;12.750;2024-02-21T08:45:19;8.30;86.40
4376;DHT22;2202;50.866;12.750;2024-02-21T08:47:46;8.10;84.60
4376;DHT22;2202;50.866;12.750;2024-02-21T08:50:13;7.90;84.40
4376;DHT22;2202;50.866;12.750;2024-02-21T08:52:40;7.80;85.00
4376;DHT22;2202;50.866;12.750;2024-02-21T08:55:07;7.50;85.60
4376;DHT22;2202;50.866;12.750;2024-02-21T08:57:35;7.40;86.60
4376;DHT22;2202;50.866;12.750;2024-02-21T09:00:04;7.30;86.80
4376;DHT22;2202;50.866;12.750;2024-02-21T09:02:35;7.30;87.00
4376;DHT22;2202;50.866;12.750;2024-02-21T09:05:03;7.40;87.80
4376;DHT22;2202;50.866;12.750;2024-02-21T09:07:31;7.40;87.00
4376;DHT22;2202;50.866;12.750;2024-02-21T09:09:58;7.30;86.40
4376;DHT22;2202;50.866;12.750;2024-02-21T09:12:25;7.30;86.80
4376;DHT22;2202;50.866;12.750;2024-02-21T09:14:53;7.30;86.80
4376;DHT22;2202;50.866;12.750;2024-02-21T09:17:20;7.20;86.60
4376;DHT22;2202;50.866;12.750;2024-02-21T09:19:47;7.10;87.40
4376;DHT22;2202;50.866;12.750;2024-02-21T09:22:14;7.10;88.00
4376;DHT22;2202;50.866;12.750;2024-02-21T09:24:41;7.00;88.80
4376;DHT22;2202;50.866;12.750;2024-02-21T09:27:07;7.10;88.20
4376;DHT22;2202;50.866;12.750;2024-02-21T09:29:34;7.10;89.00
4376;DHT22;2202;50.866;12.750;2024-02-21T09:32:03;7.00;88.60
4376;DHT22;2202;50.866;12.750;2024-02-21T09:34:30;7.10;88.60
4376;DHT22;2202;50.866;12.750;2024-02-21T09:36:57;7.10;88.40
4376;DHT22;2202;50.866;12.750;2024-02-21T09:39:24;7.20;87.80
4376;DHT22;2202;50.866;12.750;2024-02-21T09:41:54;7.20;88.00
4376;DHT22;2202;50.866;12.750;2024-02-21T09:44:24;7.10;88.60
4376;DHT22;2202;50.866;12.750;2024-02-21T09:47:03;7.20;89.20
4376;DHT22;2202;50.866;12.750;2024-02-21T09:49:31;7.30;88.80
4376;DHT22;2202;50.866;12.750;2024-02-21T09:52:01;7.20;89.20
4376;DHT22;2202;50.866;12.750;2024-02-21T09:54:29;7.30;89.00
4376;DHT22;2202;50.866;12.750;2024-02-21T09:56:56;7.30;88.20
4376;DHT22;2202;50.866;12.750;2024-02-21T09:59:24;7.20;88.20
4376;DHT22;2202;50.866;12.750;2024-02-21T10:01:52;7.20;89.20
4376;DHT22;2202;50.866;12.750;2024-02-21T10:04:20;7.30;89.00
4376;DHT22;2202;50.866;12.750;2024-02-21T10:06:47;7.30;88.40
4376;DHT22;2202;50.866;12.750;2024-02-21T10:09:21;7.40;88.20
4376;DHT22;2202;50.866;12.750;2024-02-21T10:11:49;7.40;87.60
4376;DHT22;2202;50.866;12.750;2024-02-21T10:14:16;7.40;87.40
4376;DHT22;2202;50.866;12.750;2024-02-21T10:16:44;7.40;87.40
4376;DHT22;2202;50.866;12.750;2024-02-21T10:19:18;7.40;88.00
4376;DHT22;2202;50.866;12.750;2024-02-21T10:22:02;7.50;87.00
4376;DHT22;2202;50.866;12.750;2024-02-21T10:24:30;7.60;87.60
4376;DHT22;2202;50.866;12.750;2024-02-21T10:27:02;7.50;86.40
4376;DHT22;2202;50.866;12.750;2024-02-21T10:29:29;7.50;86.80
4376;DHT22;2202;50.866;12.750;2024-02-21T10:32:09;7.70;86.80
4376;DHT22;2202;50.866;12.750;2024-02-21T10:34:38;8.00;86.80
4376;DHT22;2202;50.866;12.750;2024-02-21T10:37:08;8.30;84.60
4376;DHT22;2202;50.866;12.750;2024-02-21T10:39:37;8.30;82.60
4376;DHT22;2202;50.866;12.750;2024-02-21T10:42:04;8.50;82.60
4376;DHT22;2202;50.866;12.750;2024-02-21T10:44:33;8.70;82.20
4376;DHT22;2202;50.866;12.750;2024-02-21T10:47:00;8.80;80.80
4376;DHT22;2202;50.866;12.750;2024-02-21T10:49:32;8.80;79.40
4376;DHT22;2202;50.866;12.750;2024-02-21T10:52:14;8.80;79.40
4376;DHT22;2202;50.866;12.750;2024-02-21T10:54:47;8.70;80.20
4376;DHT22;2202;50.866;12.750;2024-02-21T10:57:16;8.90;80.60
4376;DHT22;2202;50.866;12.750;2024-02-21T10:59:45;8.80;76.00
4376;DHT22;2202;50.866;12.750;2024-02-21T11:02:12;8.80;77.20
4376;DHT22;2202;50.866;12.750;2024-02-21T11:04:40;8.90;77.40
4376;DHT22;2202;50.866;12.750;2024-02-21T11:07:07;8.70;76.80
4376;DHT22;2202;50.866;12.750;2024-02-21T11:09:34;8.70;77.40
4376;DHT22;2202;50.866;12.750;2024-02-21T11:12:04;8.80;77.60
4376;DHT22;2202;50.866;12.750;2024-02-21T11:14:32;8.70;79.20
4376;DHT22;2202;50.866;12.750;2024-02-21T11:17:01;9.00;78.40
4376;DHT22;2202;50.866;12.750;2024-02-21T11:19:29;9.30;76.00
4376;DHT22;2202;50.866;12.750;2024-02-21T11:21:57;9.40;74.00
4376;DHT22;2202;50.866;12.750;2024-02-21T11:24:27;9.50;73.80
4376;DHT22;2202;50.866;12.750;2024-02-21T11:26:55;9.30;72.40
4376;DHT22;2202;50.866;12.750;2024-02-21T11:29:26;9.30;72.20
4376;DHT22;2202;50.866;12.750;2024-02-21T11:31:55;9.40;73.20
4376;DHT22;2202;50.866;12.750;2024-02-21T11:34:22;9.50;72.80
4376;DHT22;2202;50.866;12.750;2024-02-21T11:36:49;9.70;72.20
4376;DHT22;2202;50.866;12.750;2024-02-21T11:39:21;9.90;72.20
4376;DHT22;2202;50.866;12.750;2024-02-21T11:42:02;10.10;71.40
4376;DHT22;2202;50.866;12.750;2024-02-21T11:44:31;10.20;67.40
4376;DHT22;2202;50.866;12.750;2024-02-21T11:46:58;10.10;69.40
4376;DHT22;2202;50.866;12.750;2024-02-21T11:49:25;10.30;68.00
4376;DHT22;2202;50.866;12.750;2024-02-21T11:51:58;10.20;68.00
4376;DHT22;2202;50.866;12.750;2024-02-21T11:54:29;10.30;67.80
4376;DHT22;2202;50.866;12.750;2024-02-21T11:56:56;10.50;65.80
4376;DHT22;2202;50.866;12.750;2024-02-21T11:59:23;10.60;63.40
4376;DHT22;2202;50.866;12.750;2024-02-21T12:01:52;10.50;64.40
4376;DHT22;2202;50.866;12.750;2024-02-21T12:04:19;10.20;64.40
4376;DHT22;2202;50.866;12.750;2024-02-21T12:06:46;10.10;66.00
4376;DHT22;2202;50.866;12.750;2024-02-21T12:09:14;10.10;66.20
4376;DHT22;2202;50.866;12.750;2024-02-21T12:11:41;10.10;64.80
4376;DHT22;2202;50.866;12.750;2024-02-21T12:14:08;10.10;65.20
4376;DHT22;2202;50.866;12.750;2024-02-21T12:16:35;10.10;64.80
4376;DHT22;2202;50.866;12.750;2024-02-21T12:19:04;10.10;64.20
4376;DHT22;2202;50.866;12.750;2024-02-21T12:21:31;10.00;67.00
4376;DHT22;2202;50.866;12.750;2024-02-21T12:24:00;10.00;64.20
4376;DHT22;2202;50.866;12.750;2024-02-21T12:26:30;10.10;65.00
4376;DHT22;2202;50.866;12.750;2024-02-21T12:28:57;10.30;62.80
4376;DHT22;2202;50.866;12.750;2024-02-21T12:31:24;10.40;62.80
4376;DHT22;2202;50.866;12.750;2024-02-21T12:33:51;10.50;61.80
4376;DHT22;2202;50.866;12.750;2024-02-21T12:36:20;10.30;63.60
4376;DHT22;2202;50.866;12.750;2024-02-21T12:38:47;10.30;64.00
4376;DHT22;2202;50.866;12.750;2024-02-21T12:41:14;10.20;62.40
4376;DHT22;2202;50.866;12.750;2024-02-21T12:43:41;10.40;62.40
4376;DHT22;2202;50.866;12.750;2024-02-21T12:46:08;10.40;61.40
4376;DHT22;2202;50.866;12.750;2024-02-21T12:48:35;10.50;61.00
4376;DHT22;2202;50.866;12.750;2024-02-21T12:51:02;10.60;62.40
4376;DHT22;2202;50.866;12.750;2024-02-21T12:53:31;10.60;60.40
4376;DHT22;2202;50.866;12.750;2024-02-21T12:55:58;10.70;60.40
4376;DHT22;2202;50.866;12.750;2024-02-21T12:58:25;10.80;60.60
4376;DHT22;2202;50.866;12.750;2024-02-21T13:00:51;10.90;60.10
4376;DHT22;2202;50.866;12.750;2024-02-21T13:03:18;11.00;59.60
4376;DHT22;2202;50.866;12.750;2024-02-21T13:05:46;11.00;59.20
4376;DHT22;2202;50.866;12.750;2024-02-21T13:08:13;11.10;59.00
4376;DHT22;2202;50.866;12.750;2024-02-21T13:10:42;11.10;59.20
4376;DHT22;2202;50.866;12.750;2024-02-21T13:13:08;11.00;59.60
4376;DHT22;2202;50.866;12.750;2024-02-21T13:15:35;11.10;59.90
4376;DHT22;2202;50.866;12.750;2024-02-21T13:18:04;11.20;60.10
4376;DHT22;2202;50.866;12.750;2024-02-21T13:20:31;11.30;58.50
4376;DHT22;2202;50.866;12.750;2024-02-21T13:22:58;11.20;58.70
4376;DHT22;2202;50.866;12.750;2024-02-21T13:25:25;11.30;58.70
4376;DHT22;2202;50.866;12.750;2024-02-21T13:27:53;11.30;58.50
4376;DHT22;2202;50.866;12.750;2024-02-21T13:30:21;11.20;56.70
4376;DHT22;2202;50.866;12.750;2024-02-21T13:32:48;11.20;57.10
4376;DHT22;2202;50.866;12.750;2024-02-21T13:35:15;11.10;56.60
4376;DHT22;2202;50.866;12.750;2024-02-21T13:37:42;11.10;57.40
4376;DHT22;2202;50.866;12.750;2024-02-21T13:40:09;11.10;57.40
4376;DHT22;2202;50.866;12.750;2024-02-21T13:42:36;11.00;58.20
4376;DHT22;2202;50.866;12.750;2024-02-21T13:45:07;11.00;58.30
4376;DHT22;2202;50.866;12.750;2024-02-21T13:47:34;11.10;57.10
4376;DHT22;2202;50.866;12.750;2024-02-21T13:50:01;11.10;56.70
4376;DHT22;2202;50.866;12.750;2024-02-21T13:52:29;10.90;56.00
4376;DHT22;2202;50.866;12.750;2024-02-21T13:54:56;10.90;56.20
4376;DHT22;2202;50.866;12.750;2024-02-21T13:57:24;11.00;56.40
4376;DHT22;2202;50.866;12.750;2024-02-21T13:59:51;11.00;56.20
4376;DHT22;2202;50.866;12.750;2024-02-21T14:02:19;11.10;56.90
4376;DHT22;2202;50.866;12.750;2024-02-21T14:04:46;11.00;57.40
4376;DHT22;2202;50.866;12.750;2024-02-21T14:07:13;11.00;58.70
4376;DHT22;2202;50.866;12.750;2024-02-21T14:09:40;11.00;57.80
4376;DHT22;2202;50.866;12.750;2024-02-21T14:12:07;11.00;56.60
4376;DHT22;2202;50.866;12.750;2024-02-21T14:14:34;11.00;57.30
4376;DHT22;2202;50.866;12.750;2024-02-21T14:17:02;11.00;56.40
4376;DHT22;2202;50.866;12.750;2024-02-21T14:19:30;10.90;57.80
4376;DHT22;2202;50.866;12.750;2024-02-21T14:21:57;10.80;57.60
4376;DHT22;2202;50.866;12.750;2024-02-21T14:24:24;10.60;58.20
4376;DHT22;2202;50.866;12.750;2024-02-21T14:26:53;10.70;59.00
4376;DHT22;2202;50.866;12.750;2024-02-21T14:29:20;10.90;58.90
4376;DHT22;2202;50.866;12.750;2024-02-21T14:31:47;11.00;58.70
4376;DHT22;2202;50.866;12.750;2024-02-21T14:34:14;11.00;58.50
4376;DHT22;2202;50.866;12.750;2024-02-21T14:36:42;11.00;57.80
4376;DHT22;2202;50.866;12.750;2024-02-21T14:39:09;10.80;58.20
4376;DHT22;2202;50.866;12.750;2024-02-21T14:41:36;10.80;58.90
4376;DHT22;2202;50.866;12.750;2024-02-21T14:44:05;10.60;58.70
4376;DHT22;2202;50.866;12.750;2024-02-21T14:46:31;10.50;58.90
4376;DHT22;2202;50.866;12.750;2024-02-21T14:48:58;10.50;58.90
4376;DHT22;2202;50.866;12.750;2024-02-21T14:51:25;10.30;58.70
4376;DHT22;2202;50.866;12.750;2024-02-21T14:53:53;10.20;61.60
4376;DHT22;2202;50.866;12.750;2024-02-21T14:56:21;10.30;60.80
4376;DHT22;2202;50.866;12.750;2024-02-21T14:58:51;10.40;59.90
4376;DHT22;2202;50.866;12.750;2024-02-21T15:01:18;10.40;59.80
4376;DHT22;2202;50.866;12.750;2024-02-21T15:03:45;10.30;61.20
4376;DHT22;2202;50.866;12.750;2024-02-21T15:06:12;10.10;61.80
4376;DHT22;2202;50.866;12.750;2024-02-21T15:08:39;10.00;60.20
4376;DHT22;2202;50.866;12.750;2024-02-21T15:11:08;10.00;60.10
4376;DHT22;2202;50.866;12.750;2024-02-21T15:13:35;10.00;60.20
4376;DHT22;2202;50.866;12.750;2024-02-21T15:16:02;9.90;61.40
4376;DHT22;2202;50.866;12.750;2024-02-21T15:18:30;9.90;60.80
4376;DHT22;2202;50.866;12.750;2024-02-21T15:20:58;9.80;61.60
4376;DHT22;2202;50.866;12.750;2024-02-21T15:23:25;9.70;60.80
4376;DHT22;2202;50.866;12.750;2024-02-21T15:25:52;9.60;61.80
4376;DHT22;2202;50.866;12.750;2024-02-21T15:28:20;9.60;63.60
4376;DHT22;2202;50.866;12.750;2024-02-21T15:30:47;9.50;64.80
4376;DHT22;2202;50.866;12.750;2024-02-21T15:33:14;9.30;64.60
4376;DHT22;2202;50.866;12.750;2024-02-21T15:35:40;9.40;64.00
4376;DHT22;2202;50.866;12.750;2024-02-21T15:38:08;9.30;64.80
4376;DHT22;2202;50.866;12.750;2024-02-21T15:40:35;9.30;64.60
4376;DHT22;2202;50.866;12.750;2024-02-21T15:43:02;9.30;63.60
4376;DHT22;2202;50.866;12.750;2024-02-21T15:45:30;9.30;63.80
4376;DHT22;2202;50.866;12.750;2024-02-21T15:47:57;9.20;64.60
4376;DHT22;2202;50.866;12.750;2024-02-21T15:50:23;9.10;64.80
4376;DHT22;2202;50.866;12.750;2024-02-21T15:52:53;9.00;65.20
4376;DHT22;2202;50.866;12.750;2024-02-21T15:55:20;9.10;65.20
4376;DHT22;2202;50.866;12.750;2024-02-21T15:57:47;9.00;65.80
4376;DHT22;2202;50.866;12.750;2024-02-21T16:00:15;8.90;66.60